Time;durP1;ratioP1;P1;durP2;ratioP2;P2;SDS_P1;SDS_P2;PMS_P1;PMS_P2;Temp;Humidity;BMP_temperature;BMP_pressure;BME280_temperature;BME280_humidity;BME280_pressure;Samples;Min_cycle;Max_cycle;Signal;HPM_P1;HPM_P2
2023/10/06 00:01:00;;;;;;;7.87;1.70;;;7.50;99.90;;;;;;5015354;28;20448;-62
2023/10/06 00:03:26;;;;;;;5.70;1.93;;;7.50;99.90;;;;;;5029314;28;20182;-62
2023/10/06 00:05:53;;;;;;;6.23;2.60;;;7.40;99.90;;;;;;5019571;28;20191;-62
2023/10/06 00:08:22;;;;;;;6.07;2.20;;;7.40;99.90;;;;;;5027846;28;20182;-62
2023/10/06 00:10:53;;;;;;;9.20;2.10;;;7.50;99.90;;;;;;5024844;28;20428;-62
2023/10/06 00:13:23;;;;;;;4.83;1.40;;;7.40;99.90;;;;;;5028869;28;20409;-62
2023/10/06 00:15:51;;;;;;;6.13;2.30;;;7.40;99.90;;;;;;5024591;28;20511;-62
2023/10/06 00:18:23;;;;;;;5.50;2.43;;;7.40;99.90;;;;;;5028788;28;20837;-62
2023/10/06 00:20:49;;;;;;;7.20;2.37;;;7.30;99.90;;;;;;5021282;28;20555;-62
2023/10/06 00:23:22;;;;;;;5.57;2.40;;;7.30;99.90;;;;;;5028857;28;20418;-62
2023/10/06 00:25:54;;;;;;;5.07;1.70;;;7.20;99.90;;;;;;5020245;28;20603;-62
2023/10/06 00:28:27;;;;;;;3.60;2.00;;;7.30;99.90;;;;;;5028112;28;20504;-62
2023/10/06 00:30:57;;;;;;;3.90;2.03;;;7.30;99.90;;;;;;5019231;28;20449;-62
2023/10/06 00:33:32;;;;;;;5.20;1.77;;;7.20;99.90;;;;;;5028218;28;20443;-62
2023/10/06 00:35:59;;;;;;;2.80;1.53;;;7.20;99.90;;;;;;5026430;28;20436;-62
2023/10/06 00:38:24;;;;;;;9.03;2.50;;;7.20;99.90;;;;;;5027310;28;20420;-62
2023/10/06 00:40:53;;;;;;;7.80;2.30;;;7.10;99.90;;;;;;5023044;28;20440;-62
2023/10/06 00:43:34;;;;;;;4.97;1.70;;;7.10;99.90;;;;;;5029605;28;20183;-62
2023/10/06 00:46:01;;;;;;;4.47;2.30;;;7.20;99.90;;;;;;5022082;28;20432;-62
2023/10/06 00:48:32;;;;;;;10.47;2.40;;;7.20;99.90;;;;;;5029366;28;20865;-62
2023/10/06 00:50:59;;;;;;;5.83;2.00;;;7.20;99.90;;;;;;5020604;28;20968;-62
2023/10/06 00:53:31;;;;;;;3.17;1.50;;;7.20;99.90;;;;;;5029725;28;20509;-62
2023/10/06 00:56:08;;;;;;;7.63;2.00;;;7.10;99.90;;;;;;5021592;28;20429;-62
2023/10/06 00:58:35;;;;;;;3.70;1.90;;;7.10;99.90;;;;;;5029157;28;20470;-62
2023/10/06 01:01:05;;;;;;;8.70;2.20;;;7.10;99.90;;;;;;5023788;28;21255;-62
2023/10/06 01:03:38;;;;;;;8.50;2.10;;;7.00;99.90;;;;;;5029754;28;20440;-62
2023/10/06 01:06:12;;;;;;;3.67;1.53;;;7.00;99.90;;;;;;5022740;28;20480;-62
2023/10/06 01:08:40;;;;;;;3.43;1.77;;;6.90;99.90;;;;;;5032335;28;20408;-62
2023/10/06 01:11:16;;;;;;;10.90;1.80;;;6.90;99.90;;;;;;5022118;28;20449;-62
2023/10/06 01:13:53;;;;;;;5.80;2.00;;;6.90;99.90;;;;;;5032768;28;20520;-62
2023/10/06 01:16:22;;;;;;;5.30;2.13;;;6.90;99.90;;;;;;5027615;28;20412;-62
2023/10/06 01:18:52;;;;;;;6.57;2.80;;;6.90;99.90;;;;;;5030694;28;20423;-61
2023/10/06 01:21:28;;;;;;;2.90;1.33;;;6.90;99.90;;;;;;5023736;28;20517;-62
2023/10/06 01:23:58;;;;;;;8.40;2.60;;;6.80;99.90;;;;;;5030692;28;20416;-62
2023/10/06 01:26:24;;;;;;;3.80;1.87;;;6.70;99.90;;;;;;5022722;28;20861;-62
2023/10/06 01:28:51;;;;;;;5.13;2.33;;;6.80;99.90;;;;;;5029069;28;20444;-61
2023/10/06 01:31:19;;;;;;;5.30;1.80;;;6.70;99.90;;;;;;5026936;28;20951;-62
2023/10/06 01:33:45;;;;;;;4.83;1.60;;;6.70;99.90;;;;;;5033450;28;20424;-62
2023/10/06 01:36:13;;;;;;;3.93;1.87;;;6.70;99.90;;;;;;5027688;28;20424;-62
2023/10/06 01:38:45;;;;;;;10.00;3.30;;;6.70;99.90;;;;;;5028620;28;20417;-62
2023/10/06 01:41:11;;;;;;;4.30;1.70;;;6.70;99.90;;;;;;5023687;28;20426;-61
2023/10/06 01:43:38;;;;;;;4.57;1.73;;;6.70;99.90;;;;;;5026675;28;20549;-62
2023/10/06 01:46:07;;;;;;;3.83;1.60;;;6.70;99.90;;;;;;5021864;28;20923;-61
2023/10/06 01:48:33;;;;;;;4.20;1.83;;;6.70;99.90;;;;;;5032431;28;20432;-62
2023/10/06 01:50:59;;;;;;;3.90;1.80;;;6.70;99.90;;;;;;5022974;28;20417;-62
2023/10/06 01:53:32;;;;;;;4.63;1.70;;;6.60;99.90;;;;;;5029896;28;20858;-62
2023/10/06 01:56:01;;;;;;;8.73;2.40;;;6.60;99.90;;;;;;5024077;28;20179;-62
2023/10/06 01:58:27;;;;;;;7.53;2.10;;;6.60;99.90;;;;;;5032027;28;20425;-62
2023/10/06 02:00:52;;;;;;;4.23;2.20;;;6.60;99.90;;;;;;5026514;28;20448;-62
2023/10/06 02:03:21;;;;;;;5.77;2.27;;;6.60;99.90;;;;;;5031981;28;21049;-62
2023/10/06 02:05:47;;;;;;;2.73;1.40;;;6.60;99.90;;;;;;5022615;28;20176;-62
2023/10/06 02:08:21;;;;;;;16.30;2.30;;;6.60;99.90;;;;;;5030694;28;20508;-62
2023/10/06 02:10:47;;;;;;;6.33;2.03;;;6.60;99.90;;;;;;5024305;28;20425;-62
2023/10/06 02:13:21;;;;;;;4.17;1.87;;;6.70;99.90;;;;;;5030654;28;20839;-62
2023/10/06 02:15:46;;;;;;;13.40;1.80;;;6.50;99.90;;;;;;5020496;28;20421;-62
2023/10/06 02:18:12;;;;;;;10.77;2.93;;;6.50;99.90;;;;;;5029892;28;20417;-62
2023/10/06 02:20:41;;;;;;;5.70;2.30;;;6.40;99.90;;;;;;5022169;28;20221;-61
2023/10/06 02:23:07;;;;;;;7.50;2.77;;;6.50;99.90;;;;;;5029933;28;20702;-62
2023/10/06 02:25:33;;;;;;;8.23;2.63;;;6.40;99.90;;;;;;5022427;28;20511;-62
2023/10/06 02:28:04;;;;;;;3.63;1.70;;;6.40;99.90;;;;;;5029774;28;20193;-62
2023/10/06 02:30:44;;;;;;;4.47;1.70;;;6.40;99.90;;;;;;5025528;28;20186;-62
2023/10/06 02:33:11;;;;;;;7.80;2.50;;;6.30;99.90;;;;;;5029640;28;20976;-62
2023/10/06 02:35:46;;;;;;;11.27;1.93;;;6.30;99.90;;;;;;5025189;28;20440;-62
2023/10/06 02:38:11;;;;;;;3.73;1.77;;;6.30;99.90;;;;;;5029743;28;20511;-61
2023/10/06 02:40:47;;;;;;;7.00;2.00;;;6.30;99.90;;;;;;5026369;28;20861;-62
2023/10/06 02:43:16;;;;;;;7.93;1.97;;;6.30;99.90;;;;;;5030251;28;20634;-61
2023/10/06 02:45:42;;;;;;;6.10;2.20;;;6.20;99.90;;;;;;5024850;28;20487;-62
2023/10/06 02:48:15;;;;;;;5.73;1.70;;;6.20;99.90;;;;;;5030361;28;20864;-62
2023/10/06 02:50:45;;;;;;;6.97;2.17;;;6.20;99.90;;;;;;5024033;28;20202;-62
2023/10/06 02:53:14;;;;;;;5.90;1.77;;;6.20;99.90;;;;;;5029556;28;20818;-62
2023/10/06 02:55:43;;;;;;;5.80;2.40;;;6.20;99.90;;;;;;5024914;28;21076;-62
2023/10/06 02:58:26;;;;;;;11.03;1.97;;;6.20;99.90;;;;;;5029134;28;20432;-61
2023/10/06 03:00:52;;;;;;;8.80;2.27;;;6.20;99.90;;;;;;5025903;28;20508;-62
2023/10/06 03:03:22;;;;;;;7.00;2.20;;;6.20;99.90;;;;;;5030248;28;20539;-62
2023/10/06 03:05:53;;;;;;;8.37;2.00;;;6.20;99.90;;;;;;5021211;28;20174;-62
2023/10/06 03:08:26;;;;;;;4.87;2.57;;;6.20;99.90;;;;;;5030244;28;20909;-62
2023/10/06 03:10:52;;;;;;;6.27;1.60;;;6.20;99.90;;;;;;5020972;28;20425;-62
2023/10/06 03:13:31;;;;;;;4.60;1.90;;;6.10;99.90;;;;;;5030233;28;20432;-62
2023/10/06 03:15:59;;;;;;;3.00;2.00;;;6.10;99.90;;;;;;5019159;28;20210;-62
2023/10/06 03:18:25;;;;;;;11.33;2.70;;;6.10;99.90;;;;;;5022616;28;20410;-62
2023/10/06 03:20:57;;;;;;;5.03;1.93;;;6.20;99.90;;;;;;5020586;28;20487;-62
2023/10/06 03:23:45;;;;;;;15.60;2.40;;;6.10;99.90;;;;;;5023370;28;20732;-62
2023/10/06 03:26:24;;;;;;;4.63;2.40;;;6.20;99.90;;;;;;5020283;28;20448;-62
2023/10/06 03:28:52;;;;;;;3.50;1.70;;;6.20;99.90;;;;;;5026700;28;20427;-62
2023/10/06 03:33:45;;;;;;;4.90;1.93;;;6.10;99.90;;;;;;5031316;28;20423;-62
2023/10/06 03:36:11;;;;;;;12.43;2.80;;;6.10;99.90;;;;;;5021551;28;20418;-62
2023/10/06 03:38:42;;;;;;;5.30;2.40;;;6.10;99.90;;;;;;5027981;28;20408;-62
2023/10/06 03:41:24;;;;;;;4.47;2.07;;;6.10;99.90;;;;;;5024235;28;20417;-62
2023/10/06 03:43:51;;;;;;;13.17;2.20;;;6.00;99.90;;;;;;5027496;28;20438;-62
2023/10/06 03:46:20;;;;;;;3.97;2.20;;;6.00;99.90;;;;;;5020524;28;20521;-62
2023/10/06 03:48:49;;;;;;;10.30;2.83;;;6.00;99.90;;;;;;5028585;28;20513;-62
2023/10/06 03:51:19;;;;;;;7.57;2.37;;;6.00;99.90;;;;;;5022501;28;20462;-62
2023/10/06 03:53:47;;;;;;;5.90;2.67;;;6.10;99.90;;;;;;5027682;28;20414;-62
2023/10/06 03:56:13;;;;;;;12.50;3.90;;;6.00;99.90;;;;;;5022847;28;20509;-62
2023/10/06 03:58:39;;;;;;;8.50;3.60;;;6.00;99.90;;;;;;5029542;28;20406;-62
2023/10/06 04:01:09;;;;;;;9.80;3.60;;;6.00;99.90;;;;;;5023592;28;20407;-62
2023/10/06 04:03:36;;;;;;;6.90;3.50;;;6.90;99.90;;;;;;5030073;28;20194;-62
2023/10/06 04:06:05;;;;;;;15.33;5.50;;;5.90;99.90;;;;;;5025398;28;20409;-62
2023/10/06 04:08:30;;;;;;;16.07;4.03;;;5.90;99.90;;;;;;5030309;28;20449;-62
2023/10/06 04:10:59;;;;;;;12.70;4.53;;;5.80;99.90;;;;;;5020762;28;20445;-62
2023/10/06 04:13:25;;;;;;;12.63;4.70;;;5.80;99.90;;;;;;5022445;28;20181;-62
2023/10/06 04:15:52;;;;;;;11.13;4.63;;;5.80;99.90;;;;;;5018998;28;20417;-62
2023/10/06 04:18:23;;;;;;;13.40;4.87;;;5.80;99.90;;;;;;5018088;28;20446;-62
2023/10/06 04:20:53;;;;;;;9.80;4.10;;;5.80;99.90;;;;;;5016156;28;20417;-62
2023/10/06 04:23:22;;;;;;;11.20;4.43;;;5.80;99.90;;;;;;5021721;28;20425;-62
2023/10/06 04:25:50;;;;;;;8.17;3.80;;;5.80;99.90;;;;;;5018245;28;20422;-62
2023/10/06 04:28:16;;;;;;;7.10;3.33;;;5.70;99.90;;;;;;5025372;28;20437;-62
2023/10/06 04:30:43;;;;;;;13.93;3.53;;;5.70;99.90;;;;;;5022779;28;20429;-62
2023/10/06 04:33:14;;;;;;;6.83;3.20;;;5.70;99.90;;;;;;5019661;28;20473;-62
2023/10/06 04:35:55;;;;;;;7.60;3.40;;;5.70;99.90;;;;;;5023367;28;20529;-62
2023/10/06 04:38:23;;;;;;;7.30;2.97;;;5.70;99.90;;;;;;5026137;28;20413;-62
2023/10/06 04:40:48;;;;;;;13.17;2.53;;;5.70;99.90;;;;;;5027109;28;20496;-62
2023/10/06 04:43:17;;;;;;;8.97;3.07;;;5.80;99.90;;;;;;5032389;28;20509;-62
2023/10/06 04:45:43;;;;;;;7.97;2.70;;;5.80;99.90;;;;;;5024606;28;20178;-62
2023/10/06 04:48:12;;;;;;;7.70;3.80;;;5.80;99.90;;;;;;5030963;28;20421;-62
2023/10/06 04:50:38;;;;;;;7.03;3.20;;;5.70;99.90;;;;;;5026064;28;20928;-62
2023/10/06 04:53:07;;;;;;;9.83;3.37;;;5.70;99.90;;;;;;5031330;28;20461;-62
2023/10/06 04:55:39;;;;;;;11.60;4.40;;;5.70;99.90;;;;;;5026920;28;20475;-62
2023/10/06 04:58:08;;;;;;;10.63;3.63;;;5.70;99.90;;;;;;5031227;28;20433;-62
2023/10/06 05:00:33;;;;;;;5.77;3.23;;;5.70;99.90;;;;;;5025388;28;20429;-62
2023/10/06 05:02:59;;;;;;;9.83;4.10;;;5.60;99.90;;;;;;5024579;28;20440;-62
2023/10/06 05:05:26;;;;;;;7.40;2.70;;;5.60;99.90;;;;;;5021117;28;20178;-62
2023/10/06 05:07:53;;;;;;;9.30;2.87;;;5.60;99.90;;;;;;5029285;28;20409;-62
2023/10/06 05:10:25;;;;;;;5.57;3.10;;;5.60;99.90;;;;;;5025093;28;20451;-62
2023/10/06 05:12:54;;;;;;;4.40;2.03;;;5.60;99.90;;;;;;5031358;28;20464;-62
2023/10/06 05:15:33;;;;;;;9.93;3.40;;;5.50;99.90;;;;;;5023565;28;20417;-62
2023/10/06 05:18:00;;;;;;;6.90;2.80;;;5.50;99.90;;;;;;5030427;28;20432;-62
2023/10/06 05:20:29;;;;;;;10.80;3.03;;;5.50;99.90;;;;;;5023107;28;20425;-62
2023/10/06 05:23:09;;;;;;;10.30;3.10;;;5.50;99.90;;;;;;5030987;28;20521;-62
2023/10/06 05:25:36;;;;;;;4.60;2.10;;;5.60;99.90;;;;;;5019270;28;20451;-62
2023/10/06 05:28:02;;;;;;;4.77;2.57;;;5.60;99.90;;;;;;5032204;28;20839;-62
2023/10/06 05:30:28;;;;;;;8.70;3.23;;;5.50;99.90;;;;;;5025874;28;20748;-62
2023/10/06 05:32:57;;;;;;;7.17;3.50;;;5.50;99.90;;;;;;5034256;28;20571;-62
2023/10/06 05:35:27;;;;;;;8.40;3.90;;;5.60;99.90;;;;;;5028516;28;20421;-62
2023/10/06 05:37:53;;;;;;;9.87;2.73;;;5.50;99.90;;;;;;5030577;28;20417;-62
2023/10/06 05:40:20;;;;;;;9.73;3.03;;;5.40;99.90;;;;;;5026727;28;20436;-62
2023/10/06 05:42:49;;;;;;;11.67;3.10;;;5.30;99.90;;;;;;5029727;28;20179;-62
2023/10/06 05:45:18;;;;;;;4.53;2.50;;;5.40;99.90;;;;;;5026311;28;20429;-62
2023/10/06 05:47:51;;;;;;;11.43;3.20;;;5.40;99.90;;;;;;5025515;28;20425;-62
2023/10/06 05:50:29;;;;;;;4.70;2.90;;;5.40;99.90;;;;;;5031860;28;20952;-62
2023/10/06 05:53:04;;;;;;;21.43;4.70;;;5.40;99.90;;;;;;5027703;28;20465;-62
2023/10/06 05:55:35;;;;;;;5.90;3.10;;;5.50;99.90;;;;;;5022297;28;20421;-62
2023/10/06 05:58:01;;;;;;;7.20;3.60;;;5.60;99.90;;;;;;5023200;28;20917;-62
2023/10/06 06:00:29;;;;;;;10.30;3.83;;;5.60;99.90;;;;;;5026831;28;20773;-62
2023/10/06 06:03:06;;;;;;;9.90;3.90;;;5.70;99.90;;;;;;5032440;28;20413;-62
2023/10/06 06:05:33;;;;;;;6.73;4.07;;;5.80;99.90;;;;;;5034210;28;20431;-62
2023/10/06 06:08:00;;;;;;;7.87;3.20;;;5.90;99.90;;;;;;5030437;28;20410;-62
2023/10/06 06:10:28;;;;;;;8.47;3.53;;;5.90;99.90;;;;;;5024776;28;20422;-62
2023/10/06 06:12:59;;;;;;;15.90;3.20;;;6.00;99.90;;;;;;5031886;28;20488;-62
2023/10/06 06:15:26;;;;;;;9.10;3.80;;;6.10;99.90;;;;;;5020100;28;21116;-62
2023/10/06 06:17:56;;;;;;;7.93;3.90;;;6.10;99.90;;;;;;5026983;28;21051;-62
2023/10/06 06:20:22;;;;;;;8.00;3.73;;;6.20;99.90;;;;;;5023027;28;20451;-63
2023/10/06 06:23:02;;;;;;;14.40;3.70;;;6.30;99.90;;;;;;5032225;28;20429;-63
2023/10/06 06:25:29;;;;;;;9.40;4.30;;;6.40;99.90;;;;;;5014511;28;20433;-62
2023/10/06 06:27:59;;;;;;;11.93;4.33;;;6.40;99.90;;;;;;5027894;28;20487;-62
2023/10/06 06:30:25;;;;;;;8.47;3.47;;;6.50;99.90;;;;;;5013667;28;20429;-62
2023/10/06 06:32:55;;;;;;;8.17;3.73;;;6.50;99.90;;;;;;5033091;28;20495;-63
2023/10/06 06:35:22;;;;;;;8.70;3.47;;;6.60;99.90;;;;;;5030798;28;20424;-63
2023/10/06 06:37:56;;;;;;;10.50;4.20;;;6.70;99.90;;;;;;5031182;28;20413;-63
2023/10/06 06:40:22;;;;;;;8.17;4.03;;;6.70;99.90;;;;;;5022089;28;20420;-62
2023/10/06 06:42:49;;;;;;;9.23;3.33;;;6.80;99.90;;;;;;5025362;28;20432;-62
2023/10/06 06:45:15;;;;;;;7.57;3.20;;;6.90;99.90;;;;;;5022492;28;20187;-62
2023/10/06 06:47:44;;;;;;;8.30;3.83;;;7.00;99.90;;;;;;5030186;28;20421;-62
2023/10/06 06:50:13;;;;;;;11.33;3.30;;;7.20;99.90;;;;;;5020715;28;20557;-62
2023/10/06 06:52:42;;;;;;;12.53;4.10;;;7.40;99.90;;;;;;5029041;28;20461;-62
2023/10/06 06:55:15;;;;;;;12.47;4.30;;;7.50;99.90;;;;;;5026403;28;20420;-62
2023/10/06 06:57:45;;;;;;;6.90;4.30;;;7.60;99.90;;;;;;5031606;28;20835;-62
2023/10/06 07:00:21;;;;;;;6.63;4.00;;;7.70;99.90;;;;;;5019725;28;20871;-62
2023/10/06 07:02:50;;;;;;;8.93;4.90;;;7.90;99.90;;;;;;5021306;28;20421;-62
2023/10/06 07:05:18;;;;;;;12.80;3.50;;;8.00;99.90;;;;;;5014183;28;20421;-62
2023/10/06 07:07:45;;;;;;;8.03;3.80;;;8.20;99.90;;;;;;5025378;28;20413;-63
2023/10/06 07:10:15;;;;;;;16.53;4.90;;;8.30;99.90;;;;;;5022762;28;20429;-62
2023/10/06 07:12:44;;;;;;;7.00;4.00;;;8.50;99.90;;;;;;5021568;28;20462;-62
2023/10/06 07:15:17;;;;;;;17.63;4.23;;;8.50;99.90;;;;;;5021449;28;20509;-61
2023/10/06 07:17:51;;;;;;;13.63;4.37;;;8.70;99.90;;;;;;5020634;28;20465;-62
2023/10/06 07:20:29;;;;;;;13.10;4.10;;;8.70;99.90;;;;;;5021181;28;20421;-64
2023/10/06 07:22:56;;;;;;;22.63;5.70;;;9.10;99.90;;;;;;5027546;28;20413;-62
2023/10/06 07:25:24;;;;;;;10.63;4.07;;;9.40;99.90;;;;;;5024983;28;20770;-62
2023/10/06 07:27:52;;;;;;;16.20;6.33;;;9.70;99.90;;;;;;5019490;28;20425;-63
2023/10/06 07:30:22;;;;;;;11.97;5.50;;;10.10;99.90;;;;;;5020087;28;20425;-63
2023/10/06 07:32:48;;;;;;;10.00;4.23;;;10.60;99.90;;;;;;5028008;28;20571;-62
2023/10/06 07:35:18;;;;;;;14.03;4.53;;;11.00;99.90;;;;;;5024950;28;20432;-62
2023/10/06 07:37:46;;;;;;;10.10;4.00;;;11.50;99.90;;;;;;5031546;28;20412;-62
2023/10/06 07:40:13;;;;;;;12.27;4.67;;;12.10;99.90;;;;;;5026837;28;20506;-63
2023/10/06 07:42:52;;;;;;;12.80;3.97;;;12.30;99.90;;;;;;5027580;28;20447;-61
2023/10/06 07:45:20;;;;;;;4.90;2.67;;;12.90;99.90;;;;;;5023428;28;20485;-62
2023/10/06 07:47:46;;;;;;;6.03;3.13;;;13.40;99.90;;;;;;5027145;28;20432;-62
2023/10/06 07:50:13;;;;;;;12.63;4.70;;;13.70;99.90;;;;;;5021530;28;20438;-63
2023/10/06 07:52:41;;;;;;;9.67;3.40;;;14.30;99.90;;;;;;5028719;28;20281;-63
2023/10/06 07:55:09;;;;;;;8.67;3.20;;;14.50;99.90;;;;;;5019572;28;20434;-62
2023/10/06 07:57:37;;;;;;;16.43;3.77;;;14.80;99.90;;;;;;5025065;28;20440;-62
2023/10/06 08:00:06;;;;;;;9.27;3.80;;;15.00;99.90;;;;;;5028313;28;20453;-62
2023/10/06 08:02:39;;;;;;;7.97;4.47;;;15.20;99.90;;;;;;5031387;28;20451;-62
2023/10/06 08:05:06;;;;;;;8.70;3.90;;;15.20;99.90;;;;;;5025969;28;20447;-62
2023/10/06 08:07:33;;;;;;;7.93;3.60;;;15.10;99.90;;;;;;5025054;28;20567;-62
2023/10/06 08:09:59;;;;;;;12.17;3.60;;;14.90;99.90;;;;;;5020014;28;20434;-62
2023/10/06 08:12:29;;;;;;;9.00;3.30;;;14.70;99.90;;;;;;5022506;28;20469;-62
2023/10/06 08:14:56;;;;;;;12.20;3.87;;;14.90;99.90;;;;;;5023025;28;20432;-62
2023/10/06 08:17:21;;;;;;;6.80;3.40;;;15.00;99.90;;;;;;5027461;28;20421;-62
2023/10/06 08:19:47;;;;;;;8.90;3.63;;;15.40;99.90;;;;;;5021203;28;20421;-62
2023/10/06 08:22:14;;;;;;;14.97;3.63;;;15.80;99.90;;;;;;5028419;28;20190;-62
2023/10/06 08:24:39;;;;;;;17.93;3.67;;;15.90;99.90;;;;;;5023141;28;20313;-62
2023/10/06 08:27:07;;;;;;;10.63;3.60;;;16.00;99.90;;;;;;5024151;28;20504;-62
2023/10/06 08:29:33;;;;;;;6.37;3.00;;;16.50;99.80;;;;;;5022562;28;20179;-62
2023/10/06 08:31:59;;;;;;;8.53;4.30;;;16.40;99.90;;;;;;5029230;28;20897;-62
2023/10/06 08:34:27;;;;;;;6.40;3.23;;;16.50;99.90;;;;;;5024964;28;20183;-62
2023/10/06 08:36:53;;;;;;;6.53;3.60;;;16.60;99.50;;;;;;5027943;28;20463;-63
2023/10/06 08:39:20;;;;;;;7.60;3.00;;;16.90;98.60;;;;;;5027283;28;20429;-62
2023/10/06 08:41:49;;;;;;;10.90;2.63;;;16.90;99.00;;;;;;5024769;28;20187;-62
2023/10/06 08:44:18;;;;;;;11.13;3.50;;;17.00;98.40;;;;;;5024560;28;20446;-63
2023/10/06 08:46:44;;;;;;;6.20;3.10;;;17.10;98.10;;;;;;5022576;28;20882;-62
2023/10/06 08:49:11;;;;;;;8.07;3.37;;;16.60;99.00;;;;;;5024513;28;20426;-63
2023/10/06 08:51:40;;;;;;;10.53;3.50;;;16.50;98.90;;;;;;5025155;28;22241;-62
2023/10/06 08:54:13;;;;;;;8.53;2.70;;;16.40;99.70;;;;;;5025885;28;20430;-62
2023/10/06 08:56:39;;;;;;;12.60;3.07;;;16.50;99.60;;;;;;5026882;28;20443;-62
2023/10/06 08:59:05;;;;;;;6.40;2.30;;;16.80;98.70;;;;;;5026120;28;20425;-62
2023/10/06 09:01:32;;;;;;;6.00;2.17;;;16.60;98.90;;;;;;5024949;28;20471;-63
2023/10/06 09:04:06;;;;;;;11.13;3.60;;;16.70;99.30;;;;;;5025621;28;20426;-62
2023/10/06 09:06:31;;;;;;;7.33;3.10;;;16.60;99.90;;;;;;5019723;28;20441;-62
2023/10/06 09:08:57;;;;;;;6.30;3.13;;;16.50;99.90;;;;;;5020192;28;20430;-63
2023/10/06 09:11:39;;;;;;;7.63;2.93;;;16.70;99.10;;;;;;5021171;28;20241;-63
2023/10/06 09:14:07;;;;;;;5.90;2.30;;;16.90;98.70;;;;;;5023946;28;20186;-63
2023/10/06 09:16:57;;;;;;;9.40;3.07;;;16.80;99.30;;;;;;5025794;28;20419;-63
2023/10/06 09:19:23;;;;;;;6.10;3.17;;;16.90;99.40;;;;;;5027500;28;20429;-63
2023/10/06 09:22:08;;;;;;;11.20;4.13;;;17.10;98.90;;;;;;5014101;28;20520;-62
2023/10/06 09:24:34;;;;;;;4.13;2.13;;;16.80;98.40;;;;;;5027557;28;20297;-62
2023/10/06 09:27:19;;;;;;;7.17;3.10;;;16.70;98.50;;;;;;5028417;28;20905;-62
2023/10/06 09:29:45;;;;;;;9.83;2.73;;;16.40;99.00;;;;;;5025752;28;20220;-62
2023/10/06 09:32:21;;;;;;;9.20;3.00;;;16.30;99.40;;;;;;5028655;28;20488;-62
2023/10/06 09:34:53;;;;;;;13.97;3.37;;;16.20;99.90;;;;;;5025471;28;20275;-62
2023/10/06 09:37:20;;;;;;;11.73;3.80;;;16.20;99.40;;;;;;5030001;28;20408;-62
2023/10/06 09:39:58;;;;;;;7.20;3.23;;;16.20;99.90;;;;;;5024304;28;20769;-62
2023/10/06 09:42:30;;;;;;;5.80;2.47;;;16.10;99.40;;;;;;5028737;28;20429;-62
2023/10/06 09:45:15;;;;;;;7.77;2.70;;;16.20;99.40;;;;;;5025013;28;20636;-62
2023/10/06 09:47:56;;;;;;;7.67;2.73;;;16.10;99.90;;;;;;5026902;28;20458;-62
2023/10/06 09:50:23;;;;;;;6.77;2.30;;;15.90;99.70;;;;;;5023840;28;20431;-62
2023/10/06 09:52:50;;;;;;;5.97;2.70;;;16.00;99.90;;;;;;5030521;28;20464;-62
2023/10/06 09:55:19;;;;;;;9.40;2.93;;;16.10;99.80;;;;;;5028613;28;20441;-62
2023/10/06 09:57:48;;;;;;;9.20;3.77;;;16.00;99.60;;;;;;5027171;28;20992;-63
2023/10/06 10:00:18;;;;;;;12.73;3.30;;;16.20;99.00;;;;;;5026689;28;20440;-62
2023/10/06 10:02:48;;;;;;;7.77;2.40;;;16.20;99.70;;;;;;5030994;28;21221;-64
2023/10/06 10:05:18;;;;;;;6.70;2.73;;;16.30;99.00;;;;;;5025805;28;20439;-63
2023/10/06 10:07:48;;;;;;;6.20;2.87;;;16.40;99.40;;;;;;5028701;28;20779;-62
2023/10/06 10:10:23;;;;;;;12.80;3.43;;;16.20;99.90;;;;;;5031696;28;20441;-62
2023/10/06 10:13:10;;;;;;;10.63;3.50;;;16.40;99.20;;;;;;5025782;28;20505;-62
2023/10/06 10:16:09;;;;;;;9.00;2.83;;;16.50;99.90;;;;;;5022350;28;20459;-62
2023/10/06 10:18:38;;;;;;;5.87;2.63;;;16.70;99.40;;;;;;5009976;28;20421;-62
2023/10/06 10:21:08;;;;;;;9.63;3.10;;;16.80;99.70;;;;;;5022600;28;20430;-62
2023/10/06 10:23:37;;;;;;;8.80;3.40;;;16.90;99.00;;;;;;5026745;28;20886;-62
2023/10/06 10:26:22;;;;;;;8.30;2.70;;;17.10;99.60;;;;;;5024795;28;20445;-62
2023/10/06 10:29:12;;;;;;;20.00;2.97;;;17.40;99.80;;;;;;5023920;28;20461;-62
2023/10/06 10:31:58;;;;;;;8.23;3.10;;;17.70;98.20;;;;;;5022675;28;20472;-62
2023/10/06 10:34:25;;;;;;;7.83;2.27;;;17.90;97.70;;;;;;5026676;28;20834;-62
2023/10/06 10:37:05;;;;;;;7.53;3.50;;;17.80;97.70;;;;;;5023294;28;20520;-62
2023/10/06 10:39:46;;;;;;;7.40;3.03;;;17.90;97.30;;;;;;5023628;28;20497;-63
2023/10/06 10:42:12;;;;;;;7.03;2.20;;;17.90;96.90;;;;;;5024894;28;20421;-62
2023/10/06 10:44:39;;;;;;;7.67;2.90;;;18.00;97.10;;;;;;5026990;28;20425;-63
2023/10/06 10:47:06;;;;;;;10.10;2.60;;;18.00;97.20;;;;;;5023394;28;20483;-63
2023/10/06 10:49:33;;;;;;;8.47;2.30;;;18.20;97.10;;;;;;5023870;28;20449;-63
2023/10/06 10:52:02;;;;;;;5.20;2.40;;;18.30;97.50;;;;;;5028628;28;20507;-63
2023/10/06 10:54:31;;;;;;;11.40;3.00;;;18.40;96.10;;;;;;5024798;28;20425;-63
2023/10/06 10:57:05;;;;;;;10.33;2.50;;;18.40;96.80;;;;;;5024454;28;20559;-65
2023/10/06 11:02:42;;;;;;;7.83;2.80;;;18.20;95.50;;;;;;5026843;28;20460;-64
2023/10/06 11:05:07;;;;;;;6.03;2.53;;;18.60;95.00;;;;;;5026838;28;20933;-64
2023/10/06 11:07:36;;;;;;;8.13;2.73;;;18.60;94.90;;;;;;5025350;28;20471;-64
2023/10/06 11:10:03;;;;;;;9.40;3.73;;;18.40;94.90;;;;;;5024194;28;20179;-64
2023/10/06 11:12:30;;;;;;;12.33;2.50;;;18.80;94.80;;;;;;5026908;28;20469;-64
2023/10/06 11:15:13;;;;;;;5.17;2.17;;;19.00;94.90;;;;;;5016845;28;20784;-63
2023/10/06 11:17:38;;;;;;;6.10;2.73;;;19.10;94.10;;;;;;5032296;28;20412;-64
2023/10/06 11:20:16;;;;;;;11.17;3.30;;;19.40;92.70;;;;;;5024167;28;20440;-64
2023/10/06 11:23:03;;;;;;;10.20;2.50;;;19.20;91.10;;;;;;5026881;28;20190;-64
2023/10/06 11:25:30;;;;;;;12.70;4.27;;;19.00;90.90;;;;;;5021536;28;20425;-65
2023/10/06 11:28:04;;;;;;;8.43;3.20;;;19.20;91.80;;;;;;5027628;28;20421;-64
2023/10/06 11:30:33;;;;;;;4.97;2.40;;;19.40;91.60;;;;;;5026332;28;20424;-64
2023/10/06 11:33:05;;;;;;;6.67;2.50;;;19.50;91.80;;;;;;5024264;28;20458;-64
2023/10/06 11:35:33;;;;;;;10.00;2.80;;;19.50;91.60;;;;;;5025514;28;20417;-64
2023/10/06 11:37:59;;;;;;;8.50;3.63;;;19.70;90.00;;;;;;5031255;28;20414;-64
2023/10/06 11:40:26;;;;;;;11.67;3.07;;;20.00;90.00;;;;;;5025818;28;20429;-64
2023/10/06 11:42:52;;;;;;;8.70;3.40;;;20.20;89.40;;;;;;5027998;28;21153;-64
2023/10/06 11:45:31;;;;;;;7.30;3.33;;;20.10;88.40;;;;;;5025103;28;20965;-65
2023/10/06 11:47:58;;;;;;;12.00;3.90;;;20.20;85.20;;;;;;5030093;28;20434;-64
2023/10/06 11:50:32;;;;;;;7.83;2.50;;;20.00;85.50;;;;;;5022684;28;20420;-64
2023/10/06 11:53:01;;;;;;;7.57;2.67;;;20.10;86.50;;;;;;5028954;28;20464;-64
2023/10/06 11:55:34;;;;;;;8.37;2.73;;;20.10;89.30;;;;;;5023296;28;20424;-64
2023/10/06 11:58:01;;;;;;;11.63;3.77;;;19.90;88.60;;;;;;5024243;28;20437;-64
2023/10/06 12:00:39;;;;;;;6.27;2.73;;;20.10;86.40;;;;;;5026857;28;20421;-65
2023/10/06 12:03:06;;;;;;;12.00;3.93;;;20.30;86.30;;;;;;5028290;28;20421;-64
2023/10/06 12:05:32;;;;;;;5.83;2.57;;;20.50;87.20;;;;;;5024847;28;20556;-64
2023/10/06 12:08:03;;;;;;;9.47;3.17;;;20.60;86.70;;;;;;5025626;28;20413;-65
2023/10/06 12:10:30;;;;;;;6.83;2.17;;;20.50;87.30;;;;;;5026783;28;20421;-65
2023/10/06 12:12:55;;;;;;;8.40;3.10;;;20.40;85.30;;;;;;5033827;28;20985;-64
2023/10/06 12:15:21;;;;;;;10.93;2.90;;;20.60;86.30;;;;;;5027502;28;20456;-64
2023/10/06 12:17:47;;;;;;;8.20;2.80;;;20.70;86.40;;;;;;5025967;28;20178;-64
2023/10/06 12:20:16;;;;;;;6.83;3.27;;;20.80;84.20;;;;;;5025451;28;20796;-64
2023/10/06 12:22:45;;;;;;;5.80;2.70;;;20.70;84.50;;;;;;5027148;28;20217;-64
2023/10/06 12:25:12;;;;;;;7.53;3.90;;;20.80;84.70;;;;;;5026564;28;20417;-64
2023/10/06 12:27:44;;;;;;;18.40;3.30;;;20.90;82.80;;;;;;5027693;28;21096;-64
2023/10/06 12:30:11;;;;;;;8.90;3.90;;;21.10;84.10;;;;;;5026692;28;20470;-64
2023/10/06 12:32:37;;;;;;;6.43;3.13;;;21.00;82.40;;;;;;5034229;28;20464;-64
2023/10/06 12:35:05;;;;;;;6.47;3.20;;;21.10;80.10;;;;;;5028396;28;20579;-64
2023/10/06 12:37:40;;;;;;;19.03;2.83;;;21.20;74.70;;;;;;5029081;28;20182;-64
2023/10/06 12:40:09;;;;;;;12.60;3.23;;;21.00;78.20;;;;;;5028502;28;20419;-64
2023/10/06 12:42:38;;;;;;;6.60;3.40;;;20.80;74.90;;;;;;5028532;28;20423;-64
2023/10/06 12:45:11;;;;;;;7.70;3.10;;;20.80;77.00;;;;;;5026637;28;20429;-64
2023/10/06 12:47:38;;;;;;;7.10;2.93;;;21.00;76.30;;;;;;5026479;28;20421;-62
2023/10/06 12:50:08;;;;;;;10.97;3.10;;;21.00;73.30;;;;;;5022192;28;21060;-62
2023/10/06 12:52:37;;;;;;;7.23;3.60;;;20.90;75.70;;;;;;5028471;28;20449;-62
2023/10/06 12:55:10;;;;;;;7.07;2.90;;;21.00;77.30;;;;;;5024964;28;20736;-62
2023/10/06 12:57:40;;;;;;;10.77;3.43;;;21.00;78.60;;;;;;5036311;28;20424;-62
2023/10/06 13:00:09;;;;;;;8.40;3.47;;;21.00;76.70;;;;;;5026128;28;20458;-62
2023/10/06 13:02:36;;;;;;;10.93;3.03;;;21.10;78.20;;;;;;5031899;28;20519;-61
2023/10/06 13:05:13;;;;;;;5.53;3.07;;;21.00;78.80;;;;;;5022414;28;20437;-64
2023/10/06 13:07:39;;;;;;;5.73;2.20;;;21.30;75.70;;;;;;5028583;28;20409;-64
2023/10/06 13:10:07;;;;;;;8.63;2.90;;;21.20;75.40;;;;;;5024967;28;20555;-65